Terminal Aerodrome Forecast
Issued by NWS

Home | Current Version | Previous Version | Text Only | Print | Product List | Glossary On
Versions: 1 2 3 4 5 6 7 8 9 10 11 12 13 14 15 16 17 18 19 20 21 22 23 24 25
947
FTUS43 KTOP 192320
TAFFOE
TAF
KFOE 192320Z 2000/2024 33007KT P6SM VCSH OVC011
     FM200200 03008KT P6SM -FZDZ VCSH OVC020
     FM200600 08008KT P6SM -FZRA OVC009 WS020/19035KT
     FM200900 30009KT 5SM -FZRA BR OVC007
     FM201700 33011KT P6SM OVC010
     FM202000 34014G20KT P6SM SCT050=

USA.gov is the U.S. government's official web portal to all federal, state and local government web resources and services.